Time;durP1;ratioP1;P1;durP2;ratioP2;P2;SDS_P1;SDS_P2;PMS_P1;PMS_P2;Temp;Humidity;BMP_temperature;BMP_pressure;BME280_temperature;BME280_humidity;BME280_pressure;Samples;Min_cycle;Max_cycle;Signal;HPM_P1;HPM_P2
2022/12/23 00:00:36;;;;;;;0.45;0.38;;;;;;;-145.06;100.00;60892.56;5839483;23;20383;-91
2022/12/23 00:03:46;;;;;;;0.35;0.20;;;;;;;-145.06;100.00;60892.56;5870091;23;20006;-91
2022/12/23 00:06:26;;;;;;;0.50;0.30;;;;;;;-145.06;100.00;60892.56;5839625;23;20034;-91
2022/12/23 00:09:15;;;;;;;0.47;0.30;;;;;;;-145.06;100.00;60892.56;5839138;23;20007;-90
2022/12/23 00:15:37;;;;;;;0.52;0.15;;;;;;;-145.06;100.00;60892.56;5870008;23;20014;-91
2022/12/23 00:18:40;;;;;;;0.50;0.30;;;;;;;-145.06;100.00;60892.56;5838716;23;20003;-90
2022/12/23 00:21:41;;;;;;;0.20;0.20;;;;;;;-145.06;100.00;60892.56;5820616;23;20015;-90
2022/12/23 00:24:28;;;;;;;0.45;0.30;;;;;;;-145.06;100.00;60892.56;5839679;23;20445;-91
2022/12/23 00:27:15;;;;;;;0.32;0.28;;;;;;;-145.06;100.00;60892.56;5839202;23;20002;-89
2022/12/23 00:30:00;;;;;;;1.10;0.30;;;;;;;-145.06;100.00;60892.56;5839227;23;20473;-91
2022/12/23 00:32:47;;;;;;;0.60;0.30;;;;;;;-145.06;100.00;60892.56;5839767;23;20007;-90
2022/12/23 00:35:32;;;;;;;0.50;0.30;;;;;;;-145.06;100.00;60892.56;5838177;23;20710;-89
2022/12/23 00:38:14;;;;;;;0.50;0.35;;;;;;;-145.06;100.00;60892.56;5838414;23;20363;-91
2022/12/23 00:44:12;;;;;;;0.30;0.30;;;;;;;-145.06;100.00;60892.56;5870198;23;20014;-90
2022/12/23 00:46:51;;;;;;;;;;;;;;;-145.06;100.00;60892.56;5839736;23;20007;-91
2022/12/23 00:49:45;;;;;;;0.30;0.20;;;;;;;-145.06;100.00;60892.56;5838355;23;19909;-91
2022/12/23 00:52:38;;;;;;;0.20;0.20;;;;;;;-145.06;100.00;60892.56;5839207;23;20239;-93
2022/12/23 00:55:50;;;;;;;0.30;0.30;;;;;;;-145.06;100.00;60892.56;5839216;23;20007;-91
2022/12/23 00:58:33;;;;;;;0.40;0.38;;;;;;;-145.06;100.00;60892.56;5837088;23;20011;-90
2022/12/23 01:07:15;;;;;;;0.30;0.25;;;;;;;-145.06;100.00;60892.56;5869740;23;19998;-89
2022/12/23 01:10:00;;;;;;;0.50;0.32;;;;;;;-145.06;100.00;60892.56;5837625;23;20113;-89
2022/12/23 01:12:39;;;;;;;0.40;0.40;;;;;;;-145.06;100.00;60892.56;5838093;23;20007;-90
2022/12/23 01:15:18;;;;;;;0.50;0.40;;;;;;;-145.06;100.00;60892.56;5838267;23;20018;-91
2022/12/23 01:18:08;;;;;;;1.23;0.50;;;;;;;-145.06;100.00;60892.56;5848149;23;20267;-91
2022/12/23 01:21:00;;;;;;;1.20;0.55;;;;;;;-145.06;100.00;60892.56;5838232;23;20442;-90
2022/12/23 01:23:53;;;;;;;1.13;0.40;;;;;;;-145.06;100.00;60892.56;5839304;23;20006;-91
2022/12/23 01:27:07;;;;;;;3.20;0.75;;;;;;;-145.06;100.00;60892.56;5838634;23;20003;-91
2022/12/23 01:30:34;;;;;;;1.40;0.60;;;;;;;-145.06;100.00;60892.56;5811483;23;20494;-91
2022/12/23 01:33:21;;;;;;;1.65;0.57;;;;;;;-145.06;100.00;60892.56;5838923;23;20003;-92
2022/12/23 01:39:58;;;;;;;2.13;0.82;;;;;;;-145.06;100.00;60892.56;5853315;23;20014;-90
2022/12/23 01:42:45;;;;;;;1.98;0.70;;;;;;;-145.06;100.00;60892.56;5842110;23;20006;-89
2022/12/23 01:45:32;;;;;;;1.60;0.73;;;;;;;-145.06;100.00;60892.56;5847137;23;20315;-90
2022/12/23 01:48:30;;;;;;;1.73;0.70;;;;;;;-145.06;100.00;60892.56;5838972;23;20445;-91
2022/12/23 01:51:21;;;;;;;1.73;0.95;;;;;;;-145.06;100.00;60892.56;5840618;23;20003;-91
2022/12/23 01:54:40;;;;;;;1.40;0.90;;;;;;;-145.06;100.00;60892.56;5841066;23;20010;-90
2022/12/23 01:57:28;;;;;;;1.85;0.93;;;;;;;-145.06;100.00;60892.56;5841066;23;20077;-92
2022/12/23 02:09:32;;;;;;;1.52;1.13;;;;;;;-145.06;100.00;60892.56;5870851;23;20014;-91
2022/12/23 02:12:51;;;;;;;2.13;1.27;;;;;;;-145.06;100.00;60892.56;5839873;23;20011;-92
2022/12/23 02:24:02;;;;;;;1.30;0.68;;;;;;;-145.06;100.00;60892.56;5758696;24;20012;-91
2022/12/23 02:27:03;;;;;;;1.38;0.90;;;;;;;-145.06;100.00;60892.56;5775806;23;20007;-91
2022/12/23 02:30:09;;;;;;;2.00;1.08;;;;;;;-145.06;100.00;60892.56;5840104;23;20007;-90
2022/12/23 02:33:40;;;;;;;;;;;;;;;;;;;;;
2022/12/23 02:37:25;;;;;;;2.15;1.10;;;;;;;-145.06;100.00;60892.56;5870332;23;20015;-90
2022/12/23 02:40:12;;;;;;;2.92;1.00;;;;;;;-145.06;100.00;60892.56;5749817;24;20005;-90
2022/12/23 02:43:01;;;;;;;1.48;0.90;;;;;;;-145.06;100.00;60892.56;5839083;23;20003;-91
2022/12/23 02:45:48;;;;;;;3.45;1.25;;;;;;;-145.06;100.00;60892.56;5838659;23;20434;-91
2022/12/23 02:49:00;;;;;;;3.58;1.30;;;;;;;-145.06;100.00;60892.56;5839695;23;20011;-92
2022/12/23 02:51:56;;;;;;;2.55;1.00;;;;;;;-145.06;100.00;60892.56;5838799;23;20007;-90
2022/12/23 02:54:50;;;;;;;4.80;0.98;;;;;;;-145.06;100.00;60892.56;5839773;23;20011;-91
2022/12/23 02:57:37;;;;;;;1.98;1.00;;;;;;;-145.06;100.00;60892.56;5839163;23;20213;-90
2022/12/23 03:00:20;;;;;;;2.00;0.75;;;;;;;-145.06;100.00;60892.56;5839827;23;20011;-92
2022/12/23 03:03:55;;;;;;;;;;;;;;;;;;;;;
2022/12/23 03:10:18;;;;;;;1.40;0.80;;;;;;;-145.06;100.00;60892.56;5871781;23;20007;-92
2022/12/23 03:13:55;;;;;;;;;;;;;;;;;;;;;
2022/12/23 03:17:47;;;;;;;;;;;;;;;;;;;;;
2022/12/23 03:20:54;;;;;;;0.52;0.50;;;;;;;-145.06;100.00;60892.56;5838662;23;20007;-90
2022/12/23 03:24:40;;;;;;;;;;;;;;;;;;;;;
2022/12/23 03:30:56;;;;;;;1.83;0.73;;;;;;;-145.06;100.00;60892.56;5870241;23;20035;-90
2022/12/23 03:34:32;;;;;;;1.55;0.70;;;;;;;-145.06;100.00;60892.56;5839625;23;20425;-91
2022/12/23 03:37:23;;;;;;;1.23;0.60;;;;;;;-145.06;100.00;60892.56;5829837;23;20491;-92
2022/12/23 03:40:10;;;;;;;2.33;0.70;;;;;;;-145.06;100.00;60892.56;5839647;23;20011;-90
2022/12/23 03:43:01;;;;;;;1.35;0.70;;;;;;;-145.06;100.00;60892.56;5839700;23;20089;-91
2022/12/23 03:46:28;;;;;;;1.73;0.63;;;;;;;-145.06;100.00;60892.56;5840692;23;20007;-91
2022/12/23 03:49:38;;;;;;;1.65;0.70;;;;;;;-145.06;100.00;60892.56;5839937;23;20078;-90
2022/12/23 03:52:53;;;;;;;1.45;0.60;;;;;;;-145.06;100.00;60892.56;5840426;23;20006;-91
2022/12/23 03:55:50;;;;;;;0.90;0.50;;;;;;;-145.06;100.00;60892.56;5838614;23;20006;-89
2022/12/23 03:59:13;;;;;;;1.00;0.50;;;;;;;-145.06;100.00;60892.56;5844457;23;20437;-90
2022/12/23 04:01:55;;;;;;;1.13;0.40;;;;;;;-145.06;100.00;60892.56;5836780;23;20006;-90
2022/12/23 04:04:59;;;;;;;0.50;0.38;;;;;;;-145.06;100.00;60892.56;5838414;23;20030;-90
2022/12/23 04:07:43;;;;;;;0.55;0.40;;;;;;;-145.06;100.00;60892.56;5837800;23;20745;-91
2022/12/23 04:10:26;;;;;;;0.75;0.60;;;;;;;-145.06;100.00;60892.56;5838856;23;20006;-91
2022/12/23 04:14:01;;;;;;;2.10;0.50;;;;;;;-145.06;100.00;60892.56;5839191;23;20007;-91
2022/12/23 04:20:19;;;;;;;2.10;0.80;;;;;;;-145.06;100.00;60892.56;5869971;23;20015;-91
2022/12/23 04:23:06;;;;;;;1.13;0.50;;;;;;;-145.06;100.00;60892.56;5839146;23;20461;-91
2022/12/23 04:25:52;;;;;;;0.40;0.30;;;;;;;-145.06;100.00;60892.56;5837762;23;20007;-92
2022/12/23 04:28:33;;;;;;;2.22;0.63;;;;;;;-145.06;100.00;60892.56;5838092;23;20019;-91
2022/12/23 04:31:13;;;;;;;0.77;0.50;;;;;;;-145.06;100.00;60892.56;5837718;23;20011;-90
2022/12/23 04:34:02;;;;;;;;;;;;;;;;;;;;;
2022/12/23 04:36:47;;;;;;;;;;;;;;;-145.06;100.00;60892.56;5860919;23;20255;-91
2022/12/23 04:39:51;;;;;;;0.88;0.52;;;;;;;-145.06;100.00;60892.56;5840204;23;19913;-90
2022/12/23 04:42:30;;;;;;;1.67;0.60;;;;;;;-145.06;100.00;60892.56;5838815;23;20010;-91
2022/12/23 04:59:00;;;;;;;;;;;;;;;;;;;;;
2022/12/23 05:02:08;;;;;;;0.85;0.47;;;;;;;-145.06;100.00;60892.56;5898235;23;20011;-90
2022/12/23 05:05:15;;;;;;;1.85;0.52;;;;;;;-145.06;100.00;60892.56;5867274;23;20026;-90
2022/12/23 05:16:13;;;;;;;1.25;0.40;;;;;;;-145.06;100.00;60892.56;5925593;23;20010;-91
2022/12/23 05:19:42;;;;;;;1.23;0.32;;;;;;;-145.06;100.00;60892.56;5892602;23;20472;-89
2022/12/23 05:23:13;;;;;;;0.40;0.38;;;;;;;-145.06;100.00;60892.56;5796329;23;20007;-89
2022/12/23 05:29:49;;;;;;;2.15;0.70;;;;;;;-145.06;100.00;60892.56;5927530;23;20009;-92
2022/12/23 05:33:29;;;;;;;;;;;;;;;;;;;;;
2022/12/23 05:59:02;;;;;;;1.05;0.30;;;;;;;-145.06;100.00;60892.56;5864794;23;20059;-91
2022/12/23 06:02:35;;;;;;;;;;;;;;;;;;;;;
2022/12/23 06:06:24;;;;;;;;;;;;;;;;;;;;;
2022/12/23 06:09:54;;;;;;;;;;;;;;;;;;;;;
2022/12/23 06:13:53;;;;;;;;;;;;;;;;;;;;;
2022/12/23 06:24:22;;;;;;;1.60;0.70;;;;;;;-145.06;100.00;60892.56;5885327;23;20391;-90
2022/12/23 06:27:17;;;;;;;;;;;;;;;;;;;;;
2022/12/23 06:30:10;;;;;;;1.48;0.50;;;;;;;-145.06;100.00;60892.56;5925811;23;20006;-90
2022/12/23 06:33:12;;;;;;;0.70;0.57;;;;;;;-145.06;100.00;60892.56;5874790;23;20010;-89
2022/12/23 06:35:55;;;;;;;0.38;0.38;;;;;;;-145.06;100.00;60892.56;5894896;23;20006;-90
2022/12/23 06:38:55;;;;;;;0.80;0.45;;;;;;;-145.06;100.00;60892.56;5890134;23;20010;-91
2022/12/23 06:41:46;;;;;;;0.45;0.30;;;;;;;-145.06;100.00;60892.56;5914493;23;20449;-92
2022/12/23 06:44:53;;;;;;;;;;;;;;;;;;;;;
2022/12/23 07:02:10;;;;;;;0.80;0.40;;;;;;;-145.06;100.00;60892.56;5810835;23;20454;-91
2022/12/23 07:04:53;;;;;;;0.73;0.45;;;;;;;-145.06;100.00;60892.56;5782469;23;20008;-92
2022/12/23 07:07:33;;;;;;;1.60;0.55;;;;;;;-145.06;100.00;60892.56;5781099;23;20004;-90
2022/12/23 13:52:50;;;;;;;;;;;;;;;;;;;;;
2022/12/23 14:16:07;;;;;;;0.65;0.40;;;;;;;-145.06;100.00;60892.56;5840658;23;20775;-92
2022/12/23 16:14:52;;;;;;;1.38;0.52;;;;;;;-145.06;100.00;60892.56;5850730;23;20056;-91
2022/12/23 16:25:29;;;;;;;1.73;0.85;;;;;;;-145.06;100.00;60892.56;5806739;23;20015;-92
2022/12/23 16:32:24;;;;;;;2.95;1.10;;;;;;;-145.06;100.00;60892.56;5898975;23;20010;-92
2022/12/23 16:35:30;;;;;;;4.43;0.98;;;;;;;-145.06;100.00;60892.56;5886056;23;20010;-92
2022/12/23 16:38:10;;;;;;;3.03;0.90;;;;;;;-145.06;100.00;60892.56;5883874;23;20010;-93
2022/12/23 17:05:55;;;;;;;7.38;1.73;;;;;;;-145.06;100.00;60892.56;5904707;23;20018;-89
2022/12/23 17:12:43;;;;;;;5.18;1.33;;;;;;;-145.06;100.00;60892.56;5893350;23;20006;-91
2022/12/23 17:28:39;;;;;;;5.68;1.40;;;;;;;-145.06;100.00;60892.56;5828988;23;20034;-91
2022/12/23 17:31:29;;;;;;;6.63;1.98;;;;;;;-145.06;100.00;60892.56;5808275;23;20011;-90
2022/12/23 17:34:14;;;;;;;7.90;2.00;;;;;;;-145.06;100.00;60892.56;5826005;23;20046;-91
2022/12/23 17:36:53;;;;;;;6.38;1.83;;;;;;;-145.06;100.00;60892.56;5807631;23;20015;-89
2022/12/23 17:39:37;;;;;;;8.10;1.77;;;;;;;-145.06;100.00;60892.56;5806871;23;20442;-89
2022/12/23 17:42:23;;;;;;;8.57;2.08;;;;;;;-145.06;100.00;60892.56;5804894;23;20256;-89
2022/12/23 17:45:02;;;;;;;10.98;2.60;;;;;;;-145.06;100.00;60892.56;5809779;23;20015;-89
2022/12/23 17:47:41;;;;;;;6.93;1.83;;;;;;;-145.06;100.00;60892.56;5811373;23;20003;-91
2022/12/23 17:50:41;;;;;;;6.70;2.40;;;;;;;-145.06;100.00;60892.56;5827398;23;20015;-90
2022/12/23 17:53:26;;;;;;;;;;;;;;;-145.06;100.00;60892.56;5828383;23;20007;-90
2022/12/23 17:56:14;;;;;;;8.77;2.25;;;;;;;-145.06;100.00;60892.56;5807556;23;20336;-91
2022/12/23 18:02:53;;;;;;;8.85;2.13;;;;;;;-145.06;100.00;60892.56;5700270;24;20100;-91
2022/12/23 18:05:36;;;;;;;9.07;2.60;;;;;;;-145.06;100.00;60892.56;5768250;23;20110;-89
2022/12/23 18:09:25;;;;;;;10.68;2.13;;;;;;;-145.06;100.00;60892.56;5824942;23;20016;-88
2022/12/23 18:16:25;;;;;;;9.95;2.45;;;;;;;-145.06;100.00;60892.56;5737438;23;20043;-89
2022/12/23 18:19:20;;;;;;;6.20;1.83;;;;;;;-145.06;100.00;60892.56;5805302;23;20094;-90
2022/12/23 18:22:00;;;;;;;6.80;2.05;;;;;;;-145.06;100.00;60892.56;5806314;23;20470;-89
2022/12/23 18:24:56;;;;;;;8.50;2.05;;;;;;;-145.06;100.00;60892.56;5806308;23;20015;-91
2022/12/23 18:27:36;;;;;;;8.13;2.47;;;;;;;-145.06;100.00;60892.56;5807536;23;20004;-90
2022/12/23 18:30:34;;;;;;;9.05;2.22;;;;;;;-145.06;100.00;60892.56;5807445;23;20855;-91
2022/12/23 18:33:16;;;;;;;11.02;3.08;;;;;;;-145.06;100.00;60892.56;5789025;23;20515;-91
2022/12/23 18:39:52;;;;;;;10.73;2.10;;;;;;;-145.06;100.00;60892.56;5753979;24;20021;-90
2022/12/23 18:42:31;;;;;;;9.13;2.40;;;;;;;-145.06;100.00;60892.56;5726039;24;20020;-89
2022/12/23 18:45:51;;;;;;;7.93;1.90;;;;;;;-145.06;100.00;60892.56;5809719;23;20120;-90
2022/12/23 18:48:50;;;;;;;7.75;1.83;;;;;;;-145.06;100.00;60892.56;5744828;23;20011;-90
2022/12/23 18:51:59;;;;;;;7.80;2.08;;;;;;;-145.06;100.00;60892.56;5808132;23;20007;-89
2022/12/23 18:54:39;;;;;;;8.67;2.27;;;;;;;-145.06;100.00;60892.56;5829303;23;20062;-92
2022/12/23 18:57:24;;;;;;;5.68;1.88;;;;;;;-145.06;100.00;60892.56;5828966;23;20016;-90
2022/12/23 19:00:05;;;;;;;10.60;2.60;;;;;;;-145.06;100.00;60892.56;5808851;23;20007;-91
2022/12/23 19:02:50;;;;;;;6.07;1.95;;;;;;;-145.06;100.00;60892.56;5809122;23;20008;-90
2022/12/23 19:05:33;;;;;;;9.57;2.10;;;;;;;-145.06;100.00;60892.56;5829448;23;20011;-91
2022/12/23 19:08:12;;;;;;;5.07;2.03;;;;;;;-145.06;100.00;60892.56;5807889;23;20011;-90
2022/12/23 19:10:52;;;;;;;5.18;1.90;;;;;;;-145.06;100.00;60892.56;5828723;23;20003;-91
2022/12/23 19:13:39;;;;;;;9.27;2.20;;;;;;;-145.06;100.00;60892.56;5828975;23;20007;-90
2022/12/23 19:16:20;;;;;;;7.00;2.17;;;;;;;-145.06;100.00;60892.56;5809894;23;20015;-90
2022/12/23 19:18:59;;;;;;;9.40;2.08;;;;;;;-145.06;100.00;60892.56;5807818;23;20125;-92
2022/12/23 19:21:38;;;;;;;9.60;2.60;;;;;;;-145.06;100.00;60892.56;5810080;23;20597;-89
2022/12/23 19:24:17;;;;;;;7.72;2.05;;;;;;;-145.06;100.00;60892.56;5809926;23;20256;-92
2022/12/23 19:26:56;;;;;;;8.05;2.28;;;;;;;-145.06;100.00;60892.56;5809956;23;20011;-89
2022/12/23 19:29:35;;;;;;;5.97;2.13;;;;;;;-145.06;100.00;60892.56;5829591;23;20453;-92
2022/12/23 19:32:17;;;;;;;10.13;2.53;;;;;;;-145.06;100.00;60892.56;5822952;23;20256;-90
2022/12/23 19:35:02;;;;;;;9.63;2.55;;;;;;;-145.06;100.00;60892.56;5828013;23;20007;-91
2022/12/23 19:37:44;;;;;;;9.35;2.25;;;;;;;-145.06;100.00;60892.56;5811526;23;20004;-90
2022/12/23 19:40:24;;;;;;;7.75;2.15;;;;;;;-145.06;100.00;60892.56;5810215;23;20082;-90
2022/12/23 19:43:03;;;;;;;7.03;2.08;;;;;;;-145.06;100.00;60892.56;5830019;23;20011;-91
2022/12/23 19:45:54;;;;;;;7.65;2.55;;;;;;;-145.06;100.00;60892.56;5810442;23;20015;-90
2022/12/23 19:48:36;;;;;;;11.30;2.38;;;;;;;-145.06;100.00;60892.56;5810434;23;20011;-90
2022/12/23 19:51:16;;;;;;;12.63;2.72;;;;;;;-145.06;100.00;60892.56;5832406;23;20011;-91
2022/12/23 19:53:56;;;;;;;7.07;2.00;;;;;;;-145.06;100.00;60892.56;5813244;23;20011;-90
2022/12/23 19:56:35;;;;;;;12.13;2.70;;;;;;;-145.06;100.00;60892.56;5813797;23;20019;-91
2022/12/23 19:59:14;;;;;;;8.23;2.40;;;;;;;-145.06;100.00;60892.56;5831486;23;20015;-91
2022/12/23 20:01:56;;;;;;;8.82;2.20;;;;;;;-145.06;100.00;60892.56;5833225;23;20251;-89
2022/12/23 20:04:35;;;;;;;8.90;2.00;;;;;;;-145.06;100.00;60892.56;5814519;23;20015;-91
2022/12/23 20:07:17;;;;;;;6.07;2.37;;;;;;;-145.06;100.00;60892.56;5812156;23;20250;-91
2022/12/23 20:09:56;;;;;;;6.75;1.77;;;;;;;-145.06;100.00;60892.56;5833028;23;20303;-90
2022/12/23 20:12:38;;;;;;;11.38;2.60;;;;;;;-145.06;100.00;60892.56;5812514;23;20015;-91
2022/12/23 20:15:17;;;;;;;7.05;2.13;;;;;;;-145.06;100.00;60892.56;5810370;23;20011;-91
2022/12/23 20:17:56;;;;;;;9.20;1.75;;;;;;;-145.06;100.00;60892.56;5831800;23;20011;-89
2022/12/23 20:20:37;;;;;;;8.67;2.07;;;;;;;-145.06;100.00;60892.56;5812827;23;20086;-90
2022/12/23 20:23:16;;;;;;;7.35;1.70;;;;;;;-145.06;100.00;60892.56;5801951;23;20023;-90
2022/12/23 20:25:55;;;;;;;6.57;2.07;;;;;;;-145.06;100.00;60892.56;5801812;23;20019;-91
2022/12/23 20:28:34;;;;;;;9.63;1.93;;;;;;;-145.06;100.00;60892.56;5830412;23;20284;-90
2022/12/23 20:31:21;;;;;;;7.47;2.07;;;;;;;-145.06;100.00;60892.56;5811277;23;20015;-90
2022/12/23 20:34:01;;;;;;;8.07;2.15;;;;;;;-145.06;100.00;60892.56;5809546;23;20015;-92
2022/12/23 20:36:42;;;;;;;;;;;;;;;-145.06;100.00;60892.56;5808319;23;20011;-91
2022/12/23 20:39:22;;;;;;;7.93;1.95;;;;;;;-145.06;100.00;60892.56;5811891;23;19933;-91
2022/12/23 20:42:01;;;;;;;8.48;2.08;;;;;;;-145.06;100.00;60892.56;5812707;23;20090;-90
2022/12/23 20:44:40;;;;;;;7.70;2.03;;;;;;;-145.06;100.00;60892.56;5830241;23;20010;-90
2022/12/23 20:47:22;;;;;;;6.85;1.90;;;;;;;-145.06;100.00;60892.56;5813961;23;20311;-91
2022/12/23 20:50:01;;;;;;;7.45;2.10;;;;;;;-145.06;100.00;60892.56;5813841;23;20015;-89
2022/12/23 20:52:48;;;;;;;9.25;2.22;;;;;;;-145.06;100.00;60892.56;5810493;23;20011;-90
2022/12/23 20:55:27;;;;;;;10.52;2.38;;;;;;;-145.06;100.00;60892.56;5812603;23;20007;-90
2022/12/23 21:01:09;;;;;;;5.50;1.60;;;;;;;-145.06;100.00;60892.56;5842712;23;20442;-89
2022/12/23 21:03:49;;;;;;;8.98;1.95;;;;;;;-145.06;100.00;60892.56;5808874;23;20031;-91
2022/12/23 21:06:29;;;;;;;9.30;2.35;;;;;;;-145.06;100.00;60892.56;5814146;23;20007;-90
2022/12/23 21:09:13;;;;;;;7.13;1.70;;;;;;;-145.06;100.00;60892.56;5835125;23;20011;-89
2022/12/23 21:11:55;;;;;;;5.10;1.30;;;;;;;-145.06;100.00;60892.56;5814098;23;20011;-90
2022/12/23 21:14:37;;;;;;;8.10;2.40;;;;;;;-145.06;100.00;60892.56;5815313;23;20011;-90
2022/12/23 21:17:20;;;;;;;8.13;2.25;;;;;;;-145.06;100.00;60892.56;5816468;23;20011;-90
2022/12/23 21:20:02;;;;;;;9.43;2.30;;;;;;;-145.06;100.00;60892.56;5833351;23;20031;-91
2022/12/23 21:22:47;;;;;;;4.88;1.60;;;;;;;-145.06;100.00;60892.56;5815404;23;20007;-90
2022/12/23 21:25:26;;;;;;;11.18;2.08;;;;;;;-145.06;100.00;60892.56;5817037;23;20007;-90
2022/12/23 21:28:05;;;;;;;7.53;1.95;;;;;;;-145.06;100.00;60892.56;5834182;23;20015;-90
2022/12/23 21:30:46;;;;;;;7.90;2.33;;;;;;;-145.06;100.00;60892.56;5835638;23;20008;-89
2022/12/23 21:33:26;;;;;;;6.38;1.90;;;;;;;-145.06;100.00;60892.56;5815468;23;20011;-90
2022/12/23 21:36:06;;;;;;;7.35;2.42;;;;;;;-145.06;100.00;60892.56;5833760;23;20011;-90
2022/12/23 21:38:47;;;;;;;8.75;2.00;;;;;;;-145.06;100.00;60892.56;5813986;23;20075;-89
2022/12/23 21:41:29;;;;;;;10.68;2.38;;;;;;;-145.06;100.00;60892.56;5836129;23;20007;-91
2022/12/23 21:44:12;;;;;;;5.88;1.60;;;;;;;-145.06;100.00;60892.56;5836899;23;20007;-91
2022/12/23 21:46:51;;;;;;;10.35;2.13;;;;;;;-145.06;100.00;60892.56;5814090;23;20012;-89
2022/12/23 21:49:59;;;;;;;7.63;1.88;;;;;;;-145.06;100.00;60892.56;5815639;23;20011;-91
2022/12/23 21:52:38;;;;;;;10.48;2.30;;;;;;;-145.06;100.00;60892.56;5815900;23;20035;-90
2022/12/23 21:55:20;;;;;;;8.27;2.13;;;;;;;-145.06;100.00;60892.56;5845367;23;20429;-91
2022/12/23 21:58:02;;;;;;;6.97;1.58;;;;;;;-145.06;100.00;60892.56;5817874;23;20323;-89
2022/12/23 22:00:56;;;;;;;6.32;1.65;;;;;;;-145.06;100.00;60892.56;5818862;23;20007;-91
2022/12/23 22:03:36;;;;;;;6.15;1.70;;;;;;;-145.06;100.00;60892.56;5837441;23;20329;-90
2022/12/23 22:06:23;;;;;;;5.93;1.83;;;;;;;-145.06;100.00;60892.56;5836776;23;20070;-91
2022/12/23 22:09:06;;;;;;;6.50;1.98;;;;;;;-145.06;100.00;60892.56;5839513;23;20007;-91
2022/12/23 22:11:47;;;;;;;8.15;2.13;;;;;;;-145.06;100.00;60892.56;5838131;23;20011;-90
2022/12/23 22:14:29;;;;;;;6.30;1.73;;;;;;;-145.06;100.00;60892.56;5837769;23;20023;-90
2022/12/23 22:17:08;;;;;;;9.43;1.90;;;;;;;-145.06;100.00;60892.56;5818627;23;20012;-91
2022/12/23 22:19:57;;;;;;;8.40;2.00;;;;;;;-145.06;100.00;60892.56;5817785;23;20012;-91
2022/12/23 22:22:37;;;;;;;8.00;2.10;;;;;;;-145.06;100.00;60892.56;5816536;23;20256;-89
2022/12/23 22:25:16;;;;;;;7.55;1.92;;;;;;;-145.06;100.00;60892.56;5837841;23;20015;-91
2022/12/23 22:27:55;;;;;;;11.35;2.30;;;;;;;-145.06;100.00;60892.56;5818941;23;20015;-91
2022/12/23 22:30:37;;;;;;;7.03;1.52;;;;;;;-145.06;100.00;60892.56;5848236;23;20007;-91
2022/12/23 22:33:16;;;;;;;9.95;2.38;;;;;;;-145.06;100.00;60892.56;5836268;23;20015;-90
2022/12/23 22:36:01;;;;;;;9.27;2.33;;;;;;;-145.06;100.00;60892.56;5819095;23;20011;-90
2022/12/23 22:38:41;;;;;;;11.48;2.45;;;;;;;-145.06;100.00;60892.56;5818369;23;20283;-91
2022/12/23 22:41:21;;;;;;;7.07;1.90;;;;;;;-145.06;100.00;60892.56;5815437;23;20011;-90
2022/12/23 22:44:00;;;;;;;9.20;2.28;;;;;;;-145.06;100.00;60892.56;5838880;23;20007;-90
2022/12/23 22:46:40;;;;;;;9.75;2.38;;;;;;;-145.06;100.00;60892.56;5836864;23;20015;-90
2022/12/23 22:49:19;;;;;;;9.35;2.38;;;;;;;-145.06;100.00;60892.56;5817261;23;20011;-91
2022/12/23 22:51:58;;;;;;;14.67;3.07;;;;;;;-145.06;100.00;60892.56;5815403;23;20007;-90
2022/12/23 22:54:37;;;;;;;11.43;2.30;;;;;;;-145.06;100.00;60892.56;5819094;23;20011;-91
2022/12/23 22:57:22;;;;;;;9.63;2.10;;;;;;;-145.06;100.00;60892.56;5817053;23;20007;-90
2022/12/23 23:00:02;;;;;;;8.60;2.08;;;;;;;-145.06;100.00;60892.56;5815646;23;20327;-90
2022/12/23 23:02:41;;;;;;;13.27;3.05;;;;;;;-145.06;100.00;60892.56;5819271;23;20011;-90
2022/12/23 23:05:20;;;;;;;10.30;2.90;;;;;;;-145.06;100.00;60892.56;5817516;23;20011;-90
2022/12/23 23:07:59;;;;;;;9.55;2.72;;;;;;;-145.06;100.00;60892.56;5836058;23;20544;-90
2022/12/23 23:10:40;;;;;;;9.83;2.57;;;;;;;-145.06;100.00;60892.56;5818530;23;20011;-90
2022/12/23 23:13:31;;;;;;;10.55;2.63;;;;;;;-145.06;100.00;60892.56;5818033;23;20030;-90
2022/12/23 23:16:16;;;;;;;11.77;3.05;;;;;;;-145.06;100.00;60892.56;5815866;23;20011;-91
2022/12/23 23:18:58;;;;;;;10.70;2.20;;;;;;;-145.06;100.00;60892.56;5838233;23;20007;-90
2022/12/23 23:21:37;;;;;;;12.43;3.08;;;;;;;-145.06;100.00;60892.56;5817406;23;20058;-90
2022/12/23 23:24:16;;;;;;;13.80;3.65;;;;;;;-145.06;100.00;60892.56;5815994;23;20063;-91
2022/12/23 23:27:01;;;;;;;10.87;2.30;;;;;;;-145.06;100.00;60892.56;5835979;23;20709;-90
2022/12/23 23:29:40;;;;;;;8.18;2.42;;;;;;;-145.06;100.00;60892.56;5816591;23;20015;-90
2022/12/23 23:32:23;;;;;;;9.80;2.80;;;;;;;-145.06;100.00;60892.56;5817041;23;20039;-91
2022/12/23 23:35:01;;;;;;;10.55;2.50;;;;;;;-145.06;100.00;60892.56;5815903;23;20067;-90
2022/12/23 23:37:40;;;;;;;11.40;2.70;;;;;;;-145.06;100.00;60892.56;5815801;23;20008;-90
2022/12/23 23:40:20;;;;;;;10.27;2.53;;;;;;;-145.06;100.00;60892.56;5817735;23;20019;-90
2022/12/23 23:42:59;;;;;;;9.23;2.50;;;;;;;-145.06;100.00;60892.56;5816335;23;20007;-91
2022/12/23 23:45:39;;;;;;;7.72;1.92;;;;;;;-145.06;100.00;60892.56;5815792;23;20011;-89
2022/12/23 23:48:19;;;;;;;8.48;2.05;;;;;;;-145.06;100.00;60892.56;5817889;23;20347;-91
2022/12/23 23:51:10;;;;;;;6.75;1.80;;;;;;;-145.06;100.00;60892.56;5817141;23;20011;-89
2022/12/23 23:53:50;;;;;;;11.10;2.63;;;;;;;-145.06;100.00;60892.56;5815557;23;20007;-90
2022/12/23 23:56:31;;;;;;;6.60;2.03;;;;;;;-145.06;100.00;60892.56;5817612;23;20078;-90
2022/12/23 23:59:14;;;;;;;7.93;2.00;;;;;;;-145.06;100.00;60892.56;5836278;23;20012;-90
